sensor_id;sensor_type;location;lat;lon;timestamp;P1;durP1;ratioP1;P2;durP2;ratioP2
43696;SDS011;29301;47.620;19.560;2023-05-10T00:00:38;0.70;;;0.60;;
43696;SDS011;29301;47.620;19.560;2023-05-10T00:03:04;0.80;;;0.52;;
43696;SDS011;29301;47.620;19.560;2023-05-10T00:05:30;0.70;;;0.60;;
43696;SDS011;29301;47.620;19.560;2023-05-10T00:07:56;0.82;;;0.60;;
43696;SDS011;29301;47.620;19.560;2023-05-10T00:10:22;0.80;;;0.60;;
43696;SDS011;29301;47.620;19.560;2023-05-10T00:12:48;0.80;;;0.60;;
43696;SDS011;29301;47.620;19.560;2023-05-10T00:15:14;0.80;;;0.50;;
43696;SDS011;29301;47.620;19.560;2023-05-10T00:17:39;0.80;;;0.50;;
43696;SDS011;29301;47.620;19.560;2023-05-10T00:20:05;0.70;;;0.50;;
43696;SDS011;29301;47.620;19.560;2023-05-10T00:22:31;0.70;;;0.50;;
43696;SDS011;29301;47.620;19.560;2023-05-10T00:24:57;0.70;;;0.50;;
43696;SDS011;29301;47.620;19.560;2023-05-10T00:27:23;0.70;;;0.60;;
43696;SDS011;29301;47.620;19.560;2023-05-10T00:29:49;0.77;;;0.50;;
43696;SDS011;29301;47.620;19.560;2023-05-10T00:32:15;0.70;;;0.50;;
43696;SDS011;29301;47.620;19.560;2023-05-10T00:34:41;0.80;;;0.50;;
43696;SDS011;29301;47.620;19.560;2023-05-10T00:37:07;0.70;;;0.60;;
43696;SDS011;29301;47.620;19.560;2023-05-10T00:39:32;0.80;;;0.50;;
43696;SDS011;29301;47.620;19.560;2023-05-10T00:41:58;0.80;;;0.60;;
43696;SDS011;29301;47.620;19.560;2023-05-10T00:44:25;0.80;;;0.60;;
43696;SDS011;29301;47.620;19.560;2023-05-10T00:46:50;0.80;;;0.60;;
43696;SDS011;29301;47.620;19.560;2023-05-10T00:49:17;0.70;;;0.50;;
43696;SDS011;29301;47.620;19.560;2023-05-10T00:51:43;0.70;;;0.60;;
43696;SDS011;29301;47.620;19.560;2023-05-10T00:54:11;0.80;;;0.55;;
43696;SDS011;29301;47.620;19.560;2023-05-10T00:56:38;0.77;;;0.50;;
43696;SDS011;29301;47.620;19.560;2023-05-10T00:59:05;0.70;;;0.50;;
43696;SDS011;29301;47.620;19.560;2023-05-10T01:01:31;0.70;;;0.50;;
43696;SDS011;29301;47.620;19.560;2023-05-10T01:03:57;0.70;;;0.50;;
43696;SDS011;29301;47.620;19.560;2023-05-10T01:06:23;0.80;;;0.50;;
43696;SDS011;29301;47.620;19.560;2023-05-10T01:08:49;0.70;;;0.50;;
43696;SDS011;29301;47.620;19.560;2023-05-10T01:11:15;0.70;;;0.50;;
43696;SDS011;29301;47.620;19.560;2023-05-10T01:13:42;0.70;;;0.50;;
43696;SDS011;29301;47.620;19.560;2023-05-10T01:16:11;0.70;;;0.50;;
43696;SDS011;29301;47.620;19.560;2023-05-10T01:18:38;0.70;;;0.50;;
43696;SDS011;29301;47.620;19.560;2023-05-10T01:32:11;0.70;;;0.50;;
43696;SDS011;29301;47.620;19.560;2023-05-10T01:37:25;0.70;;;0.40;;
43696;SDS011;29301;47.620;19.560;2023-05-10T01:42:47;0.70;;;0.50;;
43696;SDS011;29301;47.620;19.560;2023-05-10T01:45:19;0.70;;;0.50;;
43696;SDS011;29301;47.620;19.560;2023-05-10T01:48:11;0.70;;;0.60;;
43696;SDS011;29301;47.620;19.560;2023-05-10T01:50:41;0.80;;;0.60;;
43696;SDS011;29301;47.620;19.560;2023-05-10T01:53:10;0.70;;;0.60;;
43696;SDS011;29301;47.620;19.560;2023-05-10T01:55:47;0.80;;;0.60;;
43696;SDS011;29301;47.620;19.560;2023-05-10T01:58:20;0.70;;;0.50;;
43696;SDS011;29301;47.620;19.560;2023-05-10T02:00:49;0.80;;;0.60;;
43696;SDS011;29301;47.620;19.560;2023-05-10T02:03:15;0.80;;;0.60;;
43696;SDS011;29301;47.620;19.560;2023-05-10T02:05:43;0.80;;;0.60;;
43696;SDS011;29301;47.620;19.560;2023-05-10T02:08:11;0.80;;;0.60;;
43696;SDS011;29301;47.620;19.560;2023-05-10T02:10:39;0.70;;;0.50;;
43696;SDS011;29301;47.620;19.560;2023-05-10T02:13:05;0.80;;;0.50;;
43696;SDS011;29301;47.620;19.560;2023-05-10T02:15:32;0.70;;;0.50;;
43696;SDS011;29301;47.620;19.560;2023-05-10T02:17:59;0.70;;;0.50;;
43696;SDS011;29301;47.620;19.560;2023-05-10T02:20:27;0.70;;;0.50;;
43696;SDS011;29301;47.620;19.560;2023-05-10T02:22:54;0.80;;;0.60;;
43696;SDS011;29301;47.620;19.560;2023-05-10T02:25:23;0.70;;;0.50;;
43696;SDS011;29301;47.620;19.560;2023-05-10T02:27:50;0.80;;;0.50;;
43696;SDS011;29301;47.620;19.560;2023-05-10T02:30:18;0.70;;;0.60;;
43696;SDS011;29301;47.620;19.560;2023-05-10T02:32:45;0.70;;;0.60;;
43696;SDS011;29301;47.620;19.560;2023-05-10T02:35:12;0.80;;;0.60;;
43696;SDS011;29301;47.620;19.560;2023-05-10T02:37:38;0.70;;;0.50;;
43696;SDS011;29301;47.620;19.560;2023-05-10T02:40:05;0.68;;;0.47;;
43696;SDS011;29301;47.620;19.560;2023-05-10T02:42:32;0.70;;;0.50;;
43696;SDS011;29301;47.620;19.560;2023-05-10T02:45:01;0.70;;;0.50;;
43696;SDS011;29301;47.620;19.560;2023-05-10T02:47:30;0.70;;;0.50;;
43696;SDS011;29301;47.620;19.560;2023-05-10T02:49:56;0.70;;;0.50;;
43696;SDS011;29301;47.620;19.560;2023-05-10T02:52:23;0.70;;;0.50;;
43696;SDS011;29301;47.620;19.560;2023-05-10T02:54:58;0.70;;;0.50;;
43696;SDS011;29301;47.620;19.560;2023-05-10T02:57:26;0.70;;;0.50;;
43696;SDS011;29301;47.620;19.560;2023-05-10T02:59:55;0.70;;;0.50;;
43696;SDS011;29301;47.620;19.560;2023-05-10T03:02:21;0.70;;;0.50;;
43696;SDS011;29301;47.620;19.560;2023-05-10T03:04:47;0.70;;;0.50;;
43696;SDS011;29301;47.620;19.560;2023-05-10T03:07:12;0.80;;;0.50;;
43696;SDS011;29301;47.620;19.560;2023-05-10T03:09:38;0.70;;;0.40;;
43696;SDS011;29301;47.620;19.560;2023-05-10T03:12:15;0.68;;;0.40;;
43696;SDS011;29301;47.620;19.560;2023-05-10T03:17:47;0.70;;;0.50;;
43696;SDS011;29301;47.620;19.560;2023-05-10T03:20:29;0.70;;;0.50;;
43696;SDS011;29301;47.620;19.560;2023-05-10T03:23:11;0.70;;;0.40;;
43696;SDS011;29301;47.620;19.560;2023-05-10T03:25:49;0.70;;;0.50;;
43696;SDS011;29301;47.620;19.560;2023-05-10T03:28:18;0.70;;;0.40;;
43696;SDS011;29301;47.620;19.560;2023-05-10T03:30:45;0.70;;;0.50;;
43696;SDS011;29301;47.620;19.560;2023-05-10T03:33:11;0.70;;;0.50;;
43696;SDS011;29301;47.620;19.560;2023-05-10T03:35:38;0.70;;;0.40;;
43696;SDS011;29301;47.620;19.560;2023-05-10T03:38:04;0.70;;;0.50;;
43696;SDS011;29301;47.620;19.560;2023-05-10T03:40:30;0.70;;;0.50;;
43696;SDS011;29301;47.620;19.560;2023-05-10T03:42:57;0.70;;;0.50;;
43696;SDS011;29301;47.620;19.560;2023-05-10T03:45:23;0.70;;;0.50;;
43696;SDS011;29301;47.620;19.560;2023-05-10T03:47:49;0.70;;;0.50;;
43696;SDS011;29301;47.620;19.560;2023-05-10T03:50:15;0.70;;;0.50;;
43696;SDS011;29301;47.620;19.560;2023-05-10T03:52:41;0.60;;;0.40;;
43696;SDS011;29301;47.620;19.560;2023-05-10T03:55:06;0.70;;;0.47;;
43696;SDS011;29301;47.620;19.560;2023-05-10T03:57:32;0.60;;;0.40;;
43696;SDS011;29301;47.620;19.560;2023-05-10T03:59:58;0.60;;;0.45;;
43696;SDS011;29301;47.620;19.560;2023-05-10T04:02:24;0.70;;;0.50;;
43696;SDS011;29301;47.620;19.560;2023-05-10T04:04:50;0.70;;;0.40;;
43696;SDS011;29301;47.620;19.560;2023-05-10T04:07:16;0.70;;;0.47;;
43696;SDS011;29301;47.620;19.560;2023-05-10T04:09:42;0.70;;;0.45;;
43696;SDS011;29301;47.620;19.560;2023-05-10T04:12:08;0.70;;;0.50;;
43696;SDS011;29301;47.620;19.560;2023-05-10T04:14:34;0.60;;;0.40;;
43696;SDS011;29301;47.620;19.560;2023-05-10T04:17:00;0.70;;;0.50;;
43696;SDS011;29301;47.620;19.560;2023-05-10T04:19:32;0.70;;;0.40;;
43696;SDS011;29301;47.620;19.560;2023-05-10T04:21:58;0.70;;;0.50;;
43696;SDS011;29301;47.620;19.560;2023-05-10T04:24:24;0.70;;;0.40;;
43696;SDS011;29301;47.620;19.560;2023-05-10T04:26:50;0.63;;;0.40;;
43696;SDS011;29301;47.620;19.560;2023-05-10T04:29:16;0.70;;;0.40;;
43696;SDS011;29301;47.620;19.560;2023-05-10T04:31:41;0.60;;;0.40;;
43696;SDS011;29301;47.620;19.560;2023-05-10T04:34:07;0.68;;;0.40;;
43696;SDS011;29301;47.620;19.560;2023-05-10T04:36:33;0.68;;;0.40;;
43696;SDS011;29301;47.620;19.560;2023-05-10T04:39:00;0.70;;;0.50;;
43696;SDS011;29301;47.620;19.560;2023-05-10T04:41:27;0.70;;;0.40;;
43696;SDS011;29301;47.620;19.560;2023-05-10T04:43:54;0.70;;;0.45;;
43696;SDS011;29301;47.620;19.560;2023-05-10T04:46:19;0.70;;;0.50;;
43696;SDS011;29301;47.620;19.560;2023-05-10T04:48:45;0.70;;;0.50;;
43696;SDS011;29301;47.620;19.560;2023-05-10T04:51:11;0.70;;;0.50;;
43696;SDS011;29301;47.620;19.560;2023-05-10T04:53:37;0.68;;;0.40;;
43696;SDS011;29301;47.620;19.560;2023-05-10T04:56:03;0.80;;;0.50;;
43696;SDS011;29301;47.620;19.560;2023-05-10T04:58:29;0.70;;;0.50;;
43696;SDS011;29301;47.620;19.560;2023-05-10T05:00:55;0.70;;;0.50;;
43696;SDS011;29301;47.620;19.560;2023-05-10T05:03:20;0.70;;;0.50;;
43696;SDS011;29301;47.620;19.560;2023-05-10T05:05:47;0.70;;;0.40;;
43696;SDS011;29301;47.620;19.560;2023-05-10T05:08:12;0.70;;;0.47;;
43696;SDS011;29301;47.620;19.560;2023-05-10T05:10:38;0.70;;;0.50;;
43696;SDS011;29301;47.620;19.560;2023-05-10T05:13:04;0.70;;;0.40;;
43696;SDS011;29301;47.620;19.560;2023-05-10T05:15:30;0.70;;;0.50;;
43696;SDS011;29301;47.620;19.560;2023-05-10T05:17:56;0.70;;;0.50;;
43696;SDS011;29301;47.620;19.560;2023-05-10T05:20:21;0.70;;;0.40;;
43696;SDS011;29301;47.620;19.560;2023-05-10T05:22:47;0.60;;;0.40;;
43696;SDS011;29301;47.620;19.560;2023-05-10T05:25:13;0.70;;;0.50;;
43696;SDS011;29301;47.620;19.560;2023-05-10T05:27:40;0.70;;;0.50;;
43696;SDS011;29301;47.620;19.560;2023-05-10T05:30:06;0.60;;;0.40;;
43696;SDS011;29301;47.620;19.560;2023-05-10T05:32:32;0.60;;;0.40;;
43696;SDS011;29301;47.620;19.560;2023-05-10T05:34:57;0.60;;;0.40;;
43696;SDS011;29301;47.620;19.560;2023-05-10T05:37:23;0.70;;;0.47;;
43696;SDS011;29301;47.620;19.560;2023-05-10T05:39:49;0.70;;;0.40;;
43696;SDS011;29301;47.620;19.560;2023-05-10T05:42:15;0.70;;;0.40;;
43696;SDS011;29301;47.620;19.560;2023-05-10T05:44:42;0.68;;;0.40;;
43696;SDS011;29301;47.620;19.560;2023-05-10T05:47:08;0.70;;;0.50;;
43696;SDS011;29301;47.620;19.560;2023-05-10T05:49:34;0.70;;;0.50;;
43696;SDS011;29301;47.620;19.560;2023-05-10T05:52:00;0.70;;;0.50;;
43696;SDS011;29301;47.620;19.560;2023-05-10T05:54:27;0.70;;;0.50;;
43696;SDS011;29301;47.620;19.560;2023-05-10T05:56:58;0.70;;;0.50;;
43696;SDS011;29301;47.620;19.560;2023-05-10T05:59:25;0.70;;;0.40;;
43696;SDS011;29301;47.620;19.560;2023-05-10T06:01:51;0.60;;;0.43;;
43696;SDS011;29301;47.620;19.560;2023-05-10T06:04:17;0.70;;;0.50;;
43696;SDS011;29301;47.620;19.560;2023-05-10T06:06:43;0.70;;;0.50;;
43696;SDS011;29301;47.620;19.560;2023-05-10T06:09:09;0.70;;;0.50;;
43696;SDS011;29301;47.620;19.560;2023-05-10T06:11:35;0.70;;;0.50;;
43696;SDS011;29301;47.620;19.560;2023-05-10T06:14:01;0.70;;;0.40;;
43696;SDS011;29301;47.620;19.560;2023-05-10T06:16:29;0.70;;;0.50;;
43696;SDS011;29301;47.620;19.560;2023-05-10T06:18:55;0.70;;;0.50;;
43696;SDS011;29301;47.620;19.560;2023-05-10T06:21:21;0.70;;;0.50;;
43696;SDS011;29301;47.620;19.560;2023-05-10T06:23:46;0.68;;;0.40;;
43696;SDS011;29301;47.620;19.560;2023-05-10T06:26:12;0.60;;;0.40;;
43696;SDS011;29301;47.620;19.560;2023-05-10T06:28:38;0.70;;;0.40;;
43696;SDS011;29301;47.620;19.560;2023-05-10T06:31:05;0.60;;;0.40;;
43696;SDS011;29301;47.620;19.560;2023-05-10T06:33:31;0.70;;;0.40;;
43696;SDS011;29301;47.620;19.560;2023-05-10T06:35:57;0.65;;;0.40;;
43696;SDS011;29301;47.620;19.560;2023-05-10T06:38:23;0.60;;;0.40;;
43696;SDS011;29301;47.620;19.560;2023-05-10T06:40:49;0.70;;;0.40;;
43696;SDS011;29301;47.620;19.560;2023-05-10T06:43:15;0.73;;;0.50;;
43696;SDS011;29301;47.620;19.560;2023-05-10T06:45:40;0.60;;;0.40;;
43696;SDS011;29301;47.620;19.560;2023-05-10T06:48:06;0.70;;;0.40;;
43696;SDS011;29301;47.620;19.560;2023-05-10T06:50:32;0.68;;;0.40;;
43696;SDS011;29301;47.620;19.560;2023-05-10T06:52:58;0.60;;;0.40;;
43696;SDS011;29301;47.620;19.560;2023-05-10T06:55:24;0.60;;;0.40;;
43696;SDS011;29301;47.620;19.560;2023-05-10T06:57:50;0.60;;;0.40;;
43696;SDS011;29301;47.620;19.560;2023-05-10T07:00:16;0.50;;;0.40;;
43696;SDS011;29301;47.620;19.560;2023-05-10T07:02:42;0.40;;;0.40;;
43696;SDS011;29301;47.620;19.560;2023-05-10T07:05:08;0.45;;;0.40;;
43696;SDS011;29301;47.620;19.560;2023-05-10T07:07:34;0.50;;;0.40;;
43696;SDS011;29301;47.620;19.560;2023-05-10T07:10:00;0.50;;;0.40;;
43696;SDS011;29301;47.620;19.560;2023-05-10T07:12:27;0.40;;;0.30;;
43696;SDS011;29301;47.620;19.560;2023-05-10T07:14:53;0.40;;;0.35;;
43696;SDS011;29301;47.620;19.560;2023-05-10T07:17:18;0.40;;;0.30;;
43696;SDS011;29301;47.620;19.560;2023-05-10T07:19:44;0.40;;;0.30;;
43696;SDS011;29301;47.620;19.560;2023-05-10T07:22:10;0.50;;;0.40;;
43696;SDS011;29301;47.620;19.560;2023-05-10T07:24:35;0.45;;;0.40;;
43696;SDS011;29301;47.620;19.560;2023-05-10T07:27:01;0.30;;;0.30;;
43696;SDS011;29301;47.620;19.560;2023-05-10T07:29:27;0.40;;;0.30;;
43696;SDS011;29301;47.620;19.560;2023-05-10T07:31:53;0.40;;;0.40;;
43696;SDS011;29301;47.620;19.560;2023-05-10T07:34:19;0.40;;;0.30;;
43696;SDS011;29301;47.620;19.560;2023-05-10T07:36:44;0.40;;;0.30;;
43696;SDS011;29301;47.620;19.560;2023-05-10T07:39:10;0.40;;;0.40;;
43696;SDS011;29301;47.620;19.560;2023-05-10T07:41:36;0.40;;;0.40;;
43696;SDS011;29301;47.620;19.560;2023-05-10T07:44:03;0.40;;;0.30;;
43696;SDS011;29301;47.620;19.560;2023-05-10T07:46:30;0.30;;;0.30;;
43696;SDS011;29301;47.620;19.560;2023-05-10T07:48:55;0.50;;;0.40;;
43696;SDS011;29301;47.620;19.560;2023-05-10T07:51:21;0.40;;;0.32;;
43696;SDS011;29301;47.620;19.560;2023-05-10T07:53:47;0.30;;;0.30;;
43696;SDS011;29301;47.620;19.560;2023-05-10T07:58:57;0.38;;;0.30;;
43696;SDS011;29301;47.620;19.560;2023-05-10T08:01:24;0.30;;;0.30;;
43696;SDS011;29301;47.620;19.560;2023-05-10T08:03:50;0.45;;;0.38;;
43696;SDS011;29301;47.620;19.560;2023-05-10T08:06:18;0.40;;;0.32;;
43696;SDS011;29301;47.620;19.560;2023-05-10T08:08:47;0.40;;;0.30;;
43696;SDS011;29301;47.620;19.560;2023-05-10T08:11:18;0.30;;;0.30;;
43696;SDS011;29301;47.620;19.560;2023-05-10T08:13:45;0.40;;;0.30;;
43696;SDS011;29301;47.620;19.560;2023-05-10T08:16:12;0.40;;;0.30;;
43696;SDS011;29301;47.620;19.560;2023-05-10T08:18:38;0.40;;;0.30;;
43696;SDS011;29301;47.620;19.560;2023-05-10T08:21:04;0.43;;;0.38;;
43696;SDS011;29301;47.620;19.560;2023-05-10T08:23:30;0.40;;;0.30;;
43696;SDS011;29301;47.620;19.560;2023-05-10T08:25:56;0.40;;;0.30;;
43696;SDS011;29301;47.620;19.560;2023-05-10T08:28:21;0.40;;;0.30;;
43696;SDS011;29301;47.620;19.560;2023-05-10T08:30:47;0.40;;;0.30;;
43696;SDS011;29301;47.620;19.560;2023-05-10T08:33:14;0.40;;;0.30;;
43696;SDS011;29301;47.620;19.560;2023-05-10T08:35:40;0.40;;;0.30;;
43696;SDS011;29301;47.620;19.560;2023-05-10T08:38:06;0.40;;;0.30;;
43696;SDS011;29301;47.620;19.560;2023-05-10T08:40:32;0.30;;;0.30;;
43696;SDS011;29301;47.620;19.560;2023-05-10T08:43:15;0.40;;;0.30;;
43696;SDS011;29301;47.620;19.560;2023-05-10T08:45:42;0.30;;;0.30;;
43696;SDS011;29301;47.620;19.560;2023-05-10T08:48:10;0.30;;;0.30;;
43696;SDS011;29301;47.620;19.560;2023-05-10T08:50:37;0.40;;;0.30;;
43696;SDS011;29301;47.620;19.560;2023-05-10T08:53:11;0.30;;;0.30;;
43696;SDS011;29301;47.620;19.560;2023-05-10T08:55:38;0.30;;;0.30;;
43696;SDS011;29301;47.620;19.560;2023-05-10T08:58:08;0.40;;;0.30;;
43696;SDS011;29301;47.620;19.560;2023-05-10T09:00:34;0.40;;;0.30;;
43696;SDS011;29301;47.620;19.560;2023-05-10T09:03:02;0.30;;;0.25;;
43696;SDS011;29301;47.620;19.560;2023-05-10T09:05:29;0.30;;;0.30;;
43696;SDS011;29301;47.620;19.560;2023-05-10T09:07:54;0.40;;;0.30;;
43696;SDS011;29301;47.620;19.560;2023-05-10T09:10:20;0.40;;;0.30;;
43696;SDS011;29301;47.620;19.560;2023-05-10T09:12:46;0.40;;;0.30;;
43696;SDS011;29301;47.620;19.560;2023-05-10T09:15:14;0.30;;;0.30;;
43696;SDS011;29301;47.620;19.560;2023-05-10T09:17:44;0.40;;;0.30;;
43696;SDS011;29301;47.620;19.560;2023-05-10T09:20:10;0.30;;;0.30;;
43696;SDS011;29301;47.620;19.560;2023-05-10T09:22:36;0.30;;;0.30;;
43696;SDS011;29301;47.620;19.560;2023-05-10T09:25:03;0.30;;;0.30;;
43696;SDS011;29301;47.620;19.560;2023-05-10T09:27:30;0.30;;;0.30;;
43696;SDS011;29301;47.620;19.560;2023-05-10T09:29:56;0.40;;;0.30;;
43696;SDS011;29301;47.620;19.560;2023-05-10T09:32:24;0.35;;;0.30;;
43696;SDS011;29301;47.620;19.560;2023-05-10T09:37:38;0.30;;;0.30;;
43696;SDS011;29301;47.620;19.560;2023-05-10T09:40:11;0.40;;;0.30;;
43696;SDS011;29301;47.620;19.560;2023-05-10T09:42:38;0.30;;;0.30;;
43696;SDS011;29301;47.620;19.560;2023-05-10T09:45:04;0.40;;;0.30;;
43696;SDS011;29301;47.620;19.560;2023-05-10T09:47:36;0.30;;;0.20;;
43696;SDS011;29301;47.620;19.560;2023-05-10T09:50:03;0.40;;;0.30;;
43696;SDS011;29301;47.620;19.560;2023-05-10T09:53:14;0.40;;;0.30;;
43696;SDS011;29301;47.620;19.560;2023-05-10T09:55:42;0.50;;;0.38;;
43696;SDS011;29301;47.620;19.560;2023-05-10T09:58:11;0.30;;;0.30;;
43696;SDS011;29301;47.620;19.560;2023-05-10T10:00:38;0.30;;;0.30;;
43696;SDS011;29301;47.620;19.560;2023-05-10T10:03:12;0.30;;;0.30;;
43696;SDS011;29301;47.620;19.560;2023-05-10T10:05:40;0.32;;;0.22;;
43696;SDS011;29301;47.620;19.560;2023-05-10T10:08:09;0.30;;;0.20;;
43696;SDS011;29301;47.620;19.560;2023-05-10T10:10:36;0.40;;;0.30;;
43696;SDS011;29301;47.620;19.560;2023-05-10T10:13:05;0.40;;;0.30;;
43696;SDS011;29301;47.620;19.560;2023-05-10T10:15:33;0.30;;;0.30;;
43696;SDS011;29301;47.620;19.560;2023-05-10T10:17:59;0.30;;;0.30;;
43696;SDS011;29301;47.620;19.560;2023-05-10T10:20:26;0.30;;;0.20;;
43696;SDS011;29301;47.620;19.560;2023-05-10T10:22:53;0.30;;;0.20;;
43696;SDS011;29301;47.620;19.560;2023-05-10T10:25:19;0.30;;;0.30;;
43696;SDS011;29301;47.620;19.560;2023-05-10T10:30:39;0.30;;;0.20;;
43696;SDS011;29301;47.620;19.560;2023-05-10T10:35:55;0.40;;;0.30;;
43696;SDS011;29301;47.620;19.560;2023-05-10T10:38:24;0.30;;;0.20;;
43696;SDS011;29301;47.620;19.560;2023-05-10T10:41:01;0.40;;;0.30;;
43696;SDS011;29301;47.620;19.560;2023-05-10T10:43:28;0.38;;;0.30;;
43696;SDS011;29301;47.620;19.560;2023-05-10T10:46:10;0.30;;;0.30;;
43696;SDS011;29301;47.620;19.560;2023-05-10T10:48:37;0.30;;;0.20;;
43696;SDS011;29301;47.620;19.560;2023-05-10T10:51:02;0.30;;;0.20;;
43696;SDS011;29301;47.620;19.560;2023-05-10T10:53:28;0.40;;;0.30;;
43696;SDS011;29301;47.620;19.560;2023-05-10T10:56:08;0.30;;;0.30;;
43696;SDS011;29301;47.620;19.560;2023-05-10T10:58:40;0.30;;;0.30;;
43696;SDS011;29301;47.620;19.560;2023-05-10T11:01:19;0.30;;;0.30;;
43696;SDS011;29301;47.620;19.560;2023-05-10T11:04:45;0.30;;;0.30;;
43696;SDS011;29301;47.620;19.560;2023-05-10T11:06:40;0.30;;;0.30;;
43696;SDS011;29301;47.620;19.560;2023-05-10T11:09:08;0.30;;;0.30;;
43696;SDS011;29301;47.620;19.560;2023-05-10T11:11:35;0.30;;;0.30;;
43696;SDS011;29301;47.620;19.560;2023-05-10T11:14:05;0.40;;;0.30;;
43696;SDS011;29301;47.620;19.560;2023-05-10T11:16:42;0.30;;;0.30;;
43696;SDS011;29301;47.620;19.560;2023-05-10T11:19:09;0.40;;;0.30;;
43696;SDS011;29301;47.620;19.560;2023-05-10T11:24:18;0.30;;;0.30;;
43696;SDS011;29301;47.620;19.560;2023-05-10T11:26:45;0.43;;;0.32;;
43696;SDS011;29301;47.620;19.560;2023-05-10T11:29:12;0.40;;;0.30;;
43696;SDS011;29301;47.620;19.560;2023-05-10T11:31:45;0.40;;;0.30;;
43696;SDS011;29301;47.620;19.560;2023-05-10T11:34:12;0.50;;;0.40;;
43696;SDS011;29301;47.620;19.560;2023-05-10T11:36:52;0.40;;;0.40;;
43696;SDS011;29301;47.620;19.560;2023-05-10T11:39:25;0.40;;;0.30;;
43696;SDS011;29301;47.620;19.560;2023-05-10T11:41:52;0.40;;;0.30;;
43696;SDS011;29301;47.620;19.560;2023-05-10T11:44:18;0.52;;;0.40;;
43696;SDS011;29301;47.620;19.560;2023-05-10T11:46:44;0.40;;;0.30;;
43696;SDS011;29301;47.620;19.560;2023-05-10T11:49:09;0.40;;;0.30;;
43696;SDS011;29301;47.620;19.560;2023-05-10T11:51:36;0.40;;;0.30;;
43696;SDS011;29301;47.620;19.560;2023-05-10T11:54:05;0.30;;;0.30;;
43696;SDS011;29301;47.620;19.560;2023-05-10T11:56:33;0.30;;;0.30;;
43696;SDS011;29301;47.620;19.560;2023-05-10T11:58:59;0.40;;;0.30;;
43696;SDS011;29301;47.620;19.560;2023-05-10T12:01:27;0.52;;;0.40;;
43696;SDS011;29301;47.620;19.560;2023-05-10T12:03:55;0.40;;;0.30;;
43696;SDS011;29301;47.620;19.560;2023-05-10T12:06:25;0.30;;;0.20;;
43696;SDS011;29301;47.620;19.560;2023-05-10T12:08:56;0.40;;;0.30;;
43696;SDS011;29301;47.620;19.560;2023-05-10T12:11:24;0.40;;;0.30;;
43696;SDS011;29301;47.620;19.560;2023-05-10T12:13:50;0.30;;;0.20;;
43696;SDS011;29301;47.620;19.560;2023-05-10T12:16:17;0.40;;;0.30;;
43696;SDS011;29301;47.620;19.560;2023-05-10T12:18:49;0.30;;;0.20;;
43696;SDS011;29301;47.620;19.560;2023-05-10T12:21:20;0.40;;;0.30;;
43696;SDS011;29301;47.620;19.560;2023-05-10T12:23:48;0.38;;;0.22;;
43696;SDS011;29301;47.620;19.560;2023-05-10T12:26:18;0.30;;;0.20;;
43696;SDS011;29301;47.620;19.560;2023-05-10T12:28:46;0.40;;;0.30;;
43696;SDS011;29301;47.620;19.560;2023-05-10T12:31:12;0.40;;;0.20;;
43696;SDS011;29301;47.620;19.560;2023-05-10T12:33:38;0.40;;;0.20;;
43696;SDS011;29301;47.620;19.560;2023-05-10T12:36:09;0.30;;;0.20;;
43696;SDS011;29301;47.620;19.560;2023-05-10T12:38:36;0.30;;;0.20;;
43696;SDS011;29301;47.620;19.560;2023-05-10T12:41:05;0.40;;;0.28;;
43696;SDS011;29301;47.620;19.560;2023-05-10T12:43:32;0.38;;;0.28;;
43696;SDS011;29301;47.620;19.560;2023-05-10T12:46:04;0.30;;;0.20;;
43696;SDS011;29301;47.620;19.560;2023-05-10T12:48:30;0.30;;;0.20;;
43696;SDS011;29301;47.620;19.560;2023-05-10T12:50:56;0.40;;;0.30;;
43696;SDS011;29301;47.620;19.560;2023-05-10T12:53:22;0.30;;;0.20;;
43696;SDS011;29301;47.620;19.560;2023-05-10T12:55:48;0.40;;;0.30;;
43696;SDS011;29301;47.620;19.560;2023-05-10T12:58:13;0.40;;;0.30;;
43696;SDS011;29301;47.620;19.560;2023-05-10T13:00:39;0.40;;;0.30;;
43696;SDS011;29301;47.620;19.560;2023-05-10T13:03:05;0.30;;;0.20;;
43696;SDS011;29301;47.620;19.560;2023-05-10T13:05:33;0.40;;;0.30;;
43696;SDS011;29301;47.620;19.560;2023-05-10T13:07:59;0.38;;;0.28;;
43696;SDS011;29301;47.620;19.560;2023-05-10T13:10:25;0.40;;;0.30;;
43696;SDS011;29301;47.620;19.560;2023-05-10T13:12:50;0.30;;;0.20;;
43696;SDS011;29301;47.620;19.560;2023-05-10T13:15:16;0.30;;;0.30;;
43696;SDS011;29301;47.620;19.560;2023-05-10T13:17:42;0.40;;;0.30;;
43696;SDS011;29301;47.620;19.560;2023-05-10T13:20:08;0.30;;;0.20;;
43696;SDS011;29301;47.620;19.560;2023-05-10T13:22:35;0.40;;;0.30;;
43696;SDS011;29301;47.620;19.560;2023-05-10T13:25:01;0.43;;;0.30;;
43696;SDS011;29301;47.620;19.560;2023-05-10T13:27:27;0.38;;;0.30;;
43696;SDS011;29301;47.620;19.560;2023-05-10T13:29:53;0.30;;;0.20;;
43696;SDS011;29301;47.620;19.560;2023-05-10T13:32:20;0.30;;;0.30;;
43696;SDS011;29301;47.620;19.560;2023-05-10T13:34:45;0.40;;;0.32;;
43696;SDS011;29301;47.620;19.560;2023-05-10T13:37:11;0.30;;;0.30;;
43696;SDS011;29301;47.620;19.560;2023-05-10T13:39:37;0.40;;;0.35;;
43696;SDS011;29301;47.620;19.560;2023-05-10T13:42:03;0.32;;;0.30;;
43696;SDS011;29301;47.620;19.560;2023-05-10T13:44:29;0.40;;;0.30;;
43696;SDS011;29301;47.620;19.560;2023-05-10T13:46:55;0.40;;;0.30;;
43696;SDS011;29301;47.620;19.560;2023-05-10T13:49:21;0.40;;;0.30;;
43696;SDS011;29301;47.620;19.560;2023-05-10T13:51:47;0.30;;;0.30;;
43696;SDS011;29301;47.620;19.560;2023-05-10T13:54:13;0.30;;;0.30;;
43696;SDS011;29301;47.620;19.560;2023-05-10T13:56:38;0.30;;;0.30;;
43696;SDS011;29301;47.620;19.560;2023-05-10T13:59:06;0.30;;;0.30;;
43696;SDS011;29301;47.620;19.560;2023-05-10T14:01:32;0.30;;;0.30;;
43696;SDS011;29301;47.620;19.560;2023-05-10T14:03:59;0.40;;;0.30;;
43696;SDS011;29301;47.620;19.560;2023-05-10T14:06:24;0.40;;;0.30;;
43696;SDS011;29301;47.620;19.560;2023-05-10T14:08:51;0.30;;;0.30;;
43696;SDS011;29301;47.620;19.560;2023-05-10T14:11:18;0.30;;;0.30;;
43696;SDS011;29301;47.620;19.560;2023-05-10T14:13:44;0.35;;;0.30;;
43696;SDS011;29301;47.620;19.560;2023-05-10T14:16:10;0.35;;;0.30;;
43696;SDS011;29301;47.620;19.560;2023-05-10T14:18:36;0.40;;;0.30;;
43696;SDS011;29301;47.620;19.560;2023-05-10T14:21:03;0.30;;;0.30;;
43696;SDS011;29301;47.620;19.560;2023-05-10T14:23:28;0.40;;;0.30;;
43696;SDS011;29301;47.620;19.560;2023-05-10T14:25:55;0.40;;;0.30;;
43696;SDS011;29301;47.620;19.560;2023-05-10T14:28:21;0.40;;;0.30;;
43696;SDS011;29301;47.620;19.560;2023-05-10T14:30:47;0.40;;;0.30;;
43696;SDS011;29301;47.620;19.560;2023-05-10T14:33:13;0.40;;;0.30;;
43696;SDS011;29301;47.620;19.560;2023-05-10T14:35:39;0.40;;;0.30;;
43696;SDS011;29301;47.620;19.560;2023-05-10T14:38:05;0.40;;;0.30;;
43696;SDS011;29301;47.620;19.560;2023-05-10T14:40:31;0.40;;;0.35;;
43696;SDS011;29301;47.620;19.560;2023-05-10T14:42:56;0.40;;;0.32;;
43696;SDS011;29301;47.620;19.560;2023-05-10T14:45:22;0.40;;;0.30;;
43696;SDS011;29301;47.620;19.560;2023-05-10T14:47:49;0.40;;;0.40;;
43696;SDS011;29301;47.620;19.560;2023-05-10T14:50:15;0.40;;;0.30;;
43696;SDS011;29301;47.620;19.560;2023-05-10T14:52:42;0.40;;;0.30;;
43696;SDS011;29301;47.620;19.560;2023-05-10T14:55:07;0.50;;;0.40;;
43696;SDS011;29301;47.620;19.560;2023-05-10T14:57:33;0.30;;;0.30;;
43696;SDS011;29301;47.620;19.560;2023-05-10T14:59:59;0.40;;;0.30;;
43696;SDS011;29301;47.620;19.560;2023-05-10T15:02:25;0.43;;;0.32;;
43696;SDS011;29301;47.620;19.560;2023-05-10T15:04:50;0.43;;;0.35;;
43696;SDS011;29301;47.620;19.560;2023-05-10T15:07:16;0.50;;;0.40;;